• Join FlightAware (Why Join?)
  • Login
  • US Flag 
 
11:58AM EST


 

Airport Tracker/Info


-or-


 

Live Flight TrackerFlight Track Log ✈ CJT575 ✈ 09-May-2013 ✈ CYWG - CYVR

Flight Track Log - Related Links

Times and Time Zones

All times are in EDT time to prevent confusion due to time zone crossing. See the CJT575 flight status page for this flight to view local times or setup timezone preferences in your user account.

Time Position Orientation Groundspeed Altitude Reporting Facility
EDT Latitude Longitude Course Direction KTS MPH feet Rate Location/Type
03:48AM 49.9167 -97.2333 278° West 160 184 2,000  Level Winnipeg Center
03:49AM 49.9667 -97.2333 360° North 160 184 4,100 1,800 Climbing Winnipeg Center
03:50AM 49.9833 -97.3000 291° West 230 265 5,600 1,980 Climbing Winnipeg Center
03:51AM 49.9833 -97.4000 270° West 250 288 8,100 2,400 Climbing Winnipeg Center
03:52AM 50.0000 -97.5167 283° West 270 311 10,500 1,800 Climbing Winnipeg Center
03:53AM 49.9905 -98.2292 278° West  Level Estimated
03:53AM 50.0000 -97.6500 270° West 310 357 11,800  Level Winnipeg Center
03:54AM 50.0167 -97.8000 280° West 360 414 13,600 2,400 Climbing Winnipeg Center
03:55AM 50.0167 -97.9500 270° West 360 414 16,600 2,220 Climbing Winnipeg Center
03:56AM 50.0167 -98.1167 270° West 360 414 18,100 1,500 Climbing Winnipeg Center
03:57AM 50.0167 -98.2667 270° West 380 437 19,700 1,680 Climbing Winnipeg Center
03:58AM 50.0333 -98.4500 278° West 390 449 21,500 1,800 Climbing Winnipeg Center
03:59AM 50.0500 -98.6333 278° West 400 460 23,400 1,560 Climbing Winnipeg Center
04:01AM 50.0667 -98.9667 275° West 420 483 26,200 1,320 Climbing Winnipeg Center
04:02AM 50.0833 -99.1833 277° West 430 495 27,400 1,080 Climbing Winnipeg Center
04:03AM 50.0667 -99.3667 262° West 440 506 28,400 1,200 Climbing Winnipeg Center
04:04AM 50.0833 -99.5500 278° West 440 506 29,900 1,500 Climbing Winnipeg Center
04:05AM 50.1000 -99.7333 278° West 440 506 31,400 1,380 Climbing Winnipeg Center
04:06AM 50.1000 -99.9333 270° West 430 495 32,700 1,140 Climbing Winnipeg Center
04:07AM 50.1000 -100.1167 270° West 420 483 33,700 600 Climbing Winnipeg Center
04:08AM 50.1167 -100.2833 279° West 420 483 34,000 120 Climbing Winnipeg Center
04:09AM 50.1167 -100.4833 270° West 430 495 34,000  Level Winnipeg Center
04:10AM 50.1167 -100.6667 270° West 440 506 34,000  Level Winnipeg Center
04:11AM 50.1333 -100.8833 277° West 440 506 34,000  Level Winnipeg Center
04:12AM 50.1167 -101.0667 262° West 440 506 34,000  Level Winnipeg Center
04:13AM 50.1333 -101.2500 278° West 440 506 34,000  Level Winnipeg Center
04:14AM 50.1500 -101.4500 277° West 440 506 34,000  Level Winnipeg Center
04:15AM 50.1333 -101.6333 262° West 440 506 34,000  Level Winnipeg Center
04:16AM 50.1500 -101.8167 278° West 450 518 34,000  Level Winnipeg Center
04:17AM 50.1500 -102.0333 270° West 450 518 34,000  Level Winnipeg Center
04:18AM 50.1500 -102.2167 270° West 450 518 34,000  Level Winnipeg Center
04:19AM 50.1500 -102.4333 270° West 450 518 34,000  Level Winnipeg Center
04:20AM 50.1667 -102.6167 278° West 450 518 34,000  Level Winnipeg Center
04:21AM 50.1667 -102.8167 270° West 450 518 34,000  Level Winnipeg Center
04:22AM 50.1500 -103.0000 262° West 450 518 34,000  Level Winnipeg Center
04:23AM 50.1667 -103.1833 278° West 450 518 34,000  Level Winnipeg Center
04:24AM 50.1667 -103.4000 270° West 450 518 34,000  Level Winnipeg Center
04:25AM 50.1500 -103.5833 262° West 450 518 34,000  Level Winnipeg Center
04:26AM 50.1667 -103.7833 277° West 450 518 34,000  Level Winnipeg Center
04:27AM 50.1667 -103.9667 270° West 450 518 34,000  Level Winnipeg Center
04:28AM 50.1500 -104.1833 263° West 450 518 34,000  Level Winnipeg Center
04:29AM 50.1667 -104.3667 278° West 460 529 34,000  Level Winnipeg Center
04:30AM 50.1667 -104.5833 270° West 460 529 34,000  Level Winnipeg Center
04:31AM 50.1500 -104.7833 263° West 460 529 34,000  Level Winnipeg Center
04:32AM 50.1500 -104.9667 270° West 460 529 34,000  Level Winnipeg Center
04:33AM 50.1500 -105.1500 270° West 460 529 34,000  Level Winnipeg Center
04:34AM 50.1500 -105.3667 270° West 460 529 34,000  Level Winnipeg Center
04:35AM 50.1500 -105.5667 270° West 460 529 34,000  Level Winnipeg Center
04:36AM 50.1500 -105.7833 270° West 460 529 34,000  Level Winnipeg Center
04:37AM 50.1500 -105.9667 270° West 460 529 34,000  Level Winnipeg Center
04:38AM 50.1333 -106.1500 262° West 460 529 34,000  Level Winnipeg Center
04:39AM 50.1333 -106.3500 270° West 450 518 34,000  Level Winnipeg Center
04:40AM 50.1333 -106.5667 270° West 450 518 34,000  Level Winnipeg Center
04:41AM 50.1167 -106.7500 262° West 450 518 34,000  Level Winnipeg Center
04:42AM 50.1167 -106.9500 270° West 450 518 34,000  Level Winnipeg Center
04:43AM 50.1167 -107.1333 270° West 450 518 34,000  Level Winnipeg Center
04:44AM 50.1167 -107.3500 270° West 450 518 34,000  Level Winnipeg Center
04:45AM 50.1000 -107.5333 262° West 450 518 34,000  Level Winnipeg Center
04:46AM 50.1000 -107.7333 270° West 450 518 34,000  Level Winnipeg Center
04:47AM 50.0833 -107.9167 262° West 450 518 34,000  Level Winnipeg Center
04:48AM 50.0833 -108.1333 270° West 450 518 34,000  Level Winnipeg Center
04:49AM 50.0667 -108.3167 262° West 450 518 34,000  Level Winnipeg Center
04:50AM 50.0667 -108.5167 270° West 450 518 34,000  Level Winnipeg Center
04:51AM 50.0667 -108.7000 270° West 450 518 34,000  Level Winnipeg Center
04:52AM 50.0500 -108.9000 263° West 450 518 34,000  Level Winnipeg Center
04:53AM 50.0333 -109.0833 262° West 450 518 34,000  Level Winnipeg Center
04:54AM 50.0333 -109.3000 270° West 460 529 34,000  Level Winnipeg Center
04:55AM 50.0167 -109.4833 262° West 460 529 34,000  Level Winnipeg Center
04:56AM 50.0000 -109.6833 263° West 460 529 34,000  Level Winnipeg Center
04:57AM 50.0167 -109.8667 278° West 460 529 34,000  Level Winnipeg Center
04:58AM 50.0167 -110.0833 270° West 460 529 34,000  Level Winnipeg Center
04:59AM 50.0167 -110.2667 270° West 460 529 34,000  Level Winnipeg Center
05:00AM 50.0167 -110.4833 270° West 460 529 34,000  Level Winnipeg Center
05:01AM 50.0167 -110.6667 270° West 460 529 34,000  Level Winnipeg Center
05:02AM 50.0167 -110.8833 270° West 450 518 34,000  Level Winnipeg Center
05:03AM 50.0167 -111.0500 270° West 450 518 34,000  Level Winnipeg Center
05:04AM 50.0167 -111.2500 270° West 450 518 34,000  Level Winnipeg Center
05:05AM 50.0167 -111.4333 270° West 440 506 34,000  Level Winnipeg Center
05:06AM 50.0333 -111.6167 278° West 440 506 34,000  Level Winnipeg Center
05:07AM 50.0167 -111.8167 263° West 430 495 34,000  Level Winnipeg Center
05:08AM 50.0167 -112.0000 270° West 430 495 34,000  Level Winnipeg Center
05:09AM 50.0167 -112.2000 270° West 430 495 34,000  Level Winnipeg Center
05:10AM 50.0167 -112.3833 270° West 430 495 34,000  Level Winnipeg Center
05:11AM 50.0000 -112.5667 262° West 430 495 34,000  Level Winnipeg Center
05:12AM 50.0167 -112.7500 278° West 430 495 34,000  Level Winnipeg Center
05:13AM 50.0000 -112.9333 262° West 430 495 34,000  Level Winnipeg Center
05:13AM 50.0000 -112.8833 90° East 430 495 34,000  Level Vancouver Center
05:14AM 49.9833 -113.1333 264° West 420 483 34,000  Level Edmonton Center
05:15AM 49.9833 -113.3167 270° West 420 483 34,000  Level Edmonton Center
05:16AM 50.0000 -113.5000 278° West 420 483 34,000  Level Edmonton Center
05:17AM 49.9833 -113.6833 262° West 420 483 34,000  Level Edmonton Center
05:18AM 49.9833 -113.8667 270° West 420 483 34,000  Level Edmonton Center
05:19AM 49.9833 -114.0500 270° West 430 495 34,000  Level Edmonton Center
05:20AM 49.9667 -114.2333 262° West 430 495 34,000  Level Edmonton Center
05:21AM 49.9667 -114.4333 270° West 430 495 34,000  Level Edmonton Center
05:22AM 49.9500 -114.6167 262° West 430 495 34,000  Level Edmonton Center
05:23AM 49.9500 -114.8000 270° West 440 506 34,000  Level Edmonton Center
05:24AM 49.9500 -114.9833 270° West 440 506 34,000  Level Edmonton Center
05:25AM 49.9333 -115.1667 262° West 440 506 34,000  Level Edmonton Center
05:26AM 49.9333 -115.3833 270° West 440 506 34,000  Level Edmonton Center
05:27AM 49.9333 -115.5667 270° West 440 506 34,000  Level Edmonton Center
05:28AM 49.9167 -115.7500 262° West 440 506 34,000  Level Edmonton Center
05:29AM 49.9167 -115.9333 270° West 440 506 34,000  Level Edmonton Center
05:30AM 49.8833 -116.1333 256° West 440 506 34,000  Level Edmonton Center
05:31AM 49.8833 -116.3167 270° West 440 506 34,000  Level Edmonton Center
05:32AM 49.8833 -116.5000 270° West 440 506 34,000  Level Edmonton Center
05:33AM 49.8667 -116.7167 263° West 440 506 34,000  Level Edmonton Center
05:34AM 49.8500 -116.9000 262° West 440 506 34,000  Level Edmonton Center
05:35AM 49.8333 -117.1000 263° West 450 518 34,000  Level Edmonton Center
05:36AM 49.8333 -117.2833 270° West 450 518 34,000  Level Edmonton Center
05:37AM 49.8167 -117.4667 262° West 450 518 34,000  Level Edmonton Center
05:38AM 49.8000 -117.6667 263° West 450 518 34,000  Level Edmonton Center
05:39AM 49.7833 -117.8500 262° West 450 518 34,000  Level Edmonton Center
05:40AM 49.7667 -118.0500 263° West 450 518 34,000  Level Edmonton Center
05:41AM 49.7667 -118.2333 270° West 450 518 34,000  Level Edmonton Center
05:42AM 49.7333 -118.4500 257° West 450 518 34,000  Level Edmonton Center
05:43AM 49.7333 -118.6333 270° West 450 518 34,000  Level Edmonton Center
05:44AM 49.7167 -118.8000 261° West 450 518 34,000  Level Edmonton Center
05:45AM 49.7000 -119.0167 263° West 450 518 34,000  Level Edmonton Center
05:46AM 49.7000 -119.1833 270° West 450 518 34,000  Level Vancouver Center
05:47AM 49.6833 -119.3667 262° West 450 518 34,000  Level Vancouver Center
05:48AM 49.6667 -119.5667 263° West 450 518 34,000  Level Vancouver Center
05:49AM 49.6500 -119.7500 262° West 450 518 34,000  Level Vancouver Center
05:50AM 49.6333 -119.9333 262° West 450 518 34,000  Level Vancouver Center
05:51AM 49.6167 -120.1333 263° West 450 518 34,000  Level Vancouver Center
05:52AM 49.6000 -120.3167 262° West 450 518 34,000  Level Vancouver Center
05:53AM 49.5833 -120.5333 263° West 460 529 34,000  Level Vancouver Center
05:54AM 49.5667 -120.7167 262° West 450 518 34,000  Level Vancouver Center
05:55AM 49.5500 -120.9167 263° West 450 518 34,000  Level Vancouver Center
05:56AM 49.5167 -121.1000 254° West 460 529 34,000  Level Vancouver Center
05:57AM 49.5167 -121.2833 270° West 450 518 34,000  Level Vancouver Center
05:58AM 49.4833 -121.4833 256° West 450 518 34,000 -600 Level Vancouver Center
05:59AM 49.4667 -121.6667 262° West 460 529 32,900 -2,400 Descending Vancouver Center
06:00AM 49.4333 -121.8667 256° West 450 518 29,200 -3,780 Descending Vancouver Center
06:01AM 49.4333 -122.0500 270° West 450 518 25,400 -4,080 Descending Vancouver Center
06:02AM 49.4167 -122.2667 263° West 450 518 21,100 -3,660 Descending Vancouver Center
06:03AM 49.3833 -122.4333 253° West 440 506 18,100 -2,700 Descending Vancouver Center
06:04AM 49.3667 -122.6000 261° West 410 472 15,700 -2,640 Descending Vancouver Center
06:05AM 49.3500 -122.7500 260° West 390 449 12,900 -2,280 Descending Vancouver Center
06:06AM 49.3333 -122.9000 260° West 360 414 11,200 -1,440 Descending Vancouver Center
06:07AM 49.3167 -123.0333 259° West 320 368 10,100 -1,260 Descending Vancouver Center
06:08AM 49.3000 -123.1667 259° West 290 334 8,700 -1,560 Descending Vancouver Center
06:09AM 49.2833 -123.2833 258° West 270 311 7,000 -2,040 Descending Vancouver Center
06:10AM 49.2833 -123.3833 270° West 260 299 4,700 -2,040 Descending Vancouver Center
06:11AM 49.2500 -123.4667 239° Southwest 250 288 3,000 -900 Descending Vancouver Center
06:12AM 49.2000 -123.4333 156° South 210 242 3,000 -540 Level Vancouver Center
06:13AM 49.1833 -123.3667 111° Southeast 190 219 2,000 -960 Descending Vancouver Center
06:14AM 49.1833 -123.2833 90° East 170 196 1,100 -840 Descending Vancouver Center
06:15AM 49.1667 -123.2333 117° Southeast 140 161 400 -720 Descending Vancouver Center